createdAt,value
2016-10-21T00:00:14.570Z,0
2016-10-21T00:01:25.500Z,0
2016-10-21T00:02:36.456Z,0
2016-10-21T00:03:47.384Z,0
2016-10-21T00:04:58.317Z,0
2016-10-21T00:06:09.254Z,0
2016-10-21T00:07:20.208Z,0
2016-10-21T00:08:31.201Z,0
2016-10-21T00:09:42.670Z,0
2016-10-21T00:10:53.631Z,0
2016-10-21T00:12:04.571Z,0
2016-10-21T00:13:15.528Z,0
2016-10-21T00:14:26.463Z,0
2016-10-21T00:15:37.393Z,0
2016-10-21T00:16:48.347Z,0
2016-10-21T00:17:59.301Z,0
2016-10-21T00:19:10.238Z,0
2016-10-21T00:20:21.190Z,0
2016-10-21T00:21:32.138Z,0
2016-10-21T00:22:43.112Z,0
2016-10-21T00:23:54.035Z,0
2016-10-21T00:25:04.952Z,0
2016-10-21T00:26:15.932Z,0
2016-10-21T00:27:26.883Z,0
2016-10-21T00:28:37.860Z,0
2016-10-21T00:29:48.813Z,0
2016-10-21T00:31:00.332Z,0
2016-10-21T00:32:11.843Z,0
2016-10-21T00:33:23.304Z,0
2016-10-21T00:34:34.226Z,0
2016-10-21T00:35:45.178Z,0
2016-10-21T00:36:56.112Z,0
2016-10-21T00:38:07.052Z,0
2016-10-21T00:39:17.998Z,0
2016-10-21T00:40:28.952Z,0
2016-10-21T00:41:39.917Z,0
2016-10-21T00:42:50.865Z,0
2016-10-21T00:44:01.805Z,0
2016-10-21T00:45:12.746Z,0
2016-10-21T00:46:23.708Z,0
2016-10-21T00:47:34.690Z,0
2016-10-21T00:48:45.625Z,0
2016-10-21T00:49:57.132Z,0
2016-10-21T00:51:08.051Z,0
2016-10-21T00:52:18.981Z,0
2016-10-21T00:53:29.901Z,0
2016-10-21T00:54:40.847Z,0
2016-10-21T00:55:51.806Z,0
2016-10-21T00:57:02.743Z,0
2016-10-21T00:58:13.852Z,0
2016-10-21T00:59:24.802Z,0
2016-10-21T01:00:35.754Z,0
2016-10-21T01:01:46.717Z,0
2016-10-21T01:02:57.762Z,0
2016-10-21T01:04:08.682Z,0
2016-10-21T01:05:19.635Z,0
2016-10-21T01:06:30.607Z,0
2016-10-21T01:07:41.533Z,0
2016-10-21T01:08:52.491Z,0
2016-10-21T01:10:03.442Z,0
2016-10-21T01:11:14.965Z,0
2016-10-21T01:12:25.884Z,0
2016-10-21T01:13:36.856Z,0
2016-10-21T01:14:47.790Z,0
2016-10-21T01:15:58.746Z,0
2016-10-21T01:17:09.694Z,0
2016-10-21T01:18:20.627Z,0
2016-10-21T01:19:31.604Z,0
2016-10-21T01:20:42.524Z,0
2016-10-21T01:21:53.453Z,0
2016-10-21T01:23:04.943Z,0
2016-10-21T01:24:15.909Z,0
2016-10-21T01:25:26.816Z,0
2016-10-21T01:26:37.742Z,0
2016-10-21T01:27:48.680Z,0
2016-10-21T01:28:59.663Z,0
2016-10-21T01:30:10.625Z,0
2016-10-21T01:31:21.573Z,0
2016-10-21T01:32:32.514Z,0
2016-10-21T01:33:43.441Z,0
2016-10-21T01:34:54.371Z,0
2016-10-21T01:36:05.404Z,0
2016-10-21T01:37:16.334Z,0
2016-10-21T01:38:27.273Z,0
2016-10-21T01:39:38.202Z,0
2016-10-21T01:40:49.140Z,0
2016-10-21T01:42:00.089Z,0
2016-10-21T01:43:11.037Z,0
2016-10-21T01:44:21.988Z,0
2016-10-21T01:45:32.926Z,0
2016-10-21T01:46:43.874Z,0
2016-10-21T01:47:54.810Z,0
2016-10-21T01:49:05.755Z,0
2016-10-21T01:50:16.735Z,0
2016-10-21T01:51:27.679Z,0
2016-10-21T01:52:38.624Z,0
2016-10-21T01:53:49.578Z,0
2016-10-21T01:55:00.540Z,0
2016-10-21T01:56:11.489Z,0
2016-10-21T01:57:22.436Z,0
2016-10-21T01:58:33.377Z,0
2016-10-21T01:59:44.309Z,0
2016-10-21T02:00:55.247Z,0
2016-10-21T02:02:06.201Z,0
2016-10-21T02:03:17.184Z,0
2016-10-21T02:04:28.132Z,0
2016-10-21T02:05:39.068Z,0
2016-10-21T02:06:50.006Z,0
2016-10-21T02:08:00.944Z,0
2016-10-21T02:09:11.921Z,0
2016-10-21T02:10:22.921Z,0
2016-10-21T02:11:33.901Z,0
2016-10-21T02:12:44.847Z,0
2016-10-21T02:13:55.781Z,0
2016-10-21T02:15:06.787Z,0
2016-10-21T02:16:17.745Z,0
2016-10-21T02:17:28.712Z,0
2016-10-21T02:18:39.663Z,0
2016-10-21T02:19:50.598Z,0
2016-10-21T02:21:01.551Z,0
2016-10-21T02:22:12.499Z,0
2016-10-21T02:23:23.435Z,0
2016-10-21T02:24:34.371Z,0
2016-10-21T02:25:45.333Z,0
2016-10-21T02:26:56.292Z,0
2016-10-21T02:28:07.794Z,0
2016-10-21T02:29:18.717Z,0
2016-10-21T02:30:29.658Z,0
2016-10-21T02:31:40.578Z,0
2016-10-21T02:32:51.488Z,0
2016-10-21T02:34:02.422Z,0
2016-10-21T02:35:13.375Z,0
2016-10-21T02:36:24.319Z,0
2016-10-21T02:37:35.331Z,0
2016-10-21T02:38:46.274Z,0
2016-10-21T02:39:57.190Z,0
2016-10-21T02:41:08.135Z,0
2016-10-21T02:42:19.081Z,0
2016-10-21T02:43:30.007Z,0
2016-10-21T02:44:40.937Z,0
2016-10-21T02:45:51.894Z,0
2016-10-21T02:47:03.179Z,0
2016-10-21T02:48:14.146Z,0
2016-10-21T02:49:25.077Z,0
2016-10-21T02:50:36.017Z,0
2016-10-21T02:51:46.967Z,0
2016-10-21T02:52:57.925Z,0
2016-10-21T02:54:08.864Z,0
2016-10-21T02:55:19.814Z,0
2016-10-21T02:56:30.738Z,0
2016-10-21T02:57:41.674Z,0
2016-10-21T02:58:52.629Z,0
2016-10-21T03:00:03.579Z,0
2016-10-21T03:01:14.577Z,0
2016-10-21T03:02:25.536Z,0
2016-10-21T03:03:36.527Z,0
2016-10-21T03:04:47.468Z,0
2016-10-21T03:05:58.411Z,0
2016-10-21T03:07:09.359Z,0
2016-10-21T03:08:20.291Z,0
2016-10-21T03:09:31.222Z,0
2016-10-21T03:10:42.171Z,0
2016-10-21T03:11:53.111Z,0
2016-10-21T03:13:04.041Z,0
2016-10-21T03:14:15.001Z,0
2016-10-21T03:15:25.929Z,0
2016-10-21T03:16:36.856Z,0
2016-10-21T03:17:47.825Z,0
2016-10-21T03:18:58.798Z,0
2016-10-21T03:20:09.774Z,0
2016-10-21T03:21:20.705Z,0
2016-10-21T03:22:31.662Z,0
2016-10-21T03:23:42.613Z,0
2016-10-21T03:24:53.558Z,0
2016-10-21T03:26:04.487Z,0
2016-10-21T03:27:15.439Z,0
2016-10-21T03:28:26.406Z,0
2016-10-21T03:29:37.326Z,0
2016-10-21T03:30:48.270Z,0
2016-10-21T03:31:59.220Z,0
2016-10-21T03:33:10.175Z,0
2016-10-21T03:34:21.139Z,0
2016-10-21T03:35:32.102Z,0
2016-10-21T03:36:43.045Z,0
2016-10-21T03:37:53.978Z,0
2016-10-21T03:39:04.917Z,0
2016-10-21T03:40:15.857Z,0
2016-10-21T03:41:26.792Z,0
2016-10-21T03:42:37.720Z,0
2016-10-21T03:43:48.661Z,0
2016-10-21T03:44:59.596Z,0
2016-10-21T03:46:10.579Z,0
2016-10-21T03:47:21.501Z,0
2016-10-21T03:48:32.450Z,0
2016-10-21T03:49:43.416Z,0
2016-10-21T03:50:54.361Z,0
2016-10-21T03:52:05.283Z,0
2016-10-21T03:53:16.226Z,0
2016-10-21T03:54:27.201Z,0
2016-10-21T03:55:38.139Z,0
2016-10-21T03:56:49.109Z,0
2016-10-21T03:58:00.030Z,0
2016-10-21T03:59:10.943Z,0
2016-10-21T04:00:21.888Z,0
2016-10-21T04:01:32.831Z,0
2016-10-21T04:02:43.764Z,0
2016-10-21T04:03:54.720Z,0
2016-10-21T04:05:05.654Z,0
2016-10-21T04:06:16.582Z,0
2016-10-21T04:07:27.515Z,0
2016-10-21T04:08:38.472Z,0
2016-10-21T04:09:49.434Z,0
2016-10-21T04:11:00.375Z,0
2016-10-21T04:12:11.854Z,0
2016-10-21T04:13:22.798Z,0
2016-10-21T04:14:33.768Z,0
2016-10-21T04:15:44.710Z,0
2016-10-21T04:16:55.644Z,0
2016-10-21T04:18:06.586Z,0
2016-10-21T04:19:17.539Z,0
2016-10-21T04:20:28.478Z,0
2016-10-21T04:21:39.417Z,0
2016-10-21T04:22:50.376Z,0
2016-10-21T04:24:01.303Z,0
2016-10-21T04:25:12.277Z,0
2016-10-21T04:26:23.197Z,0
2016-10-21T04:27:34.134Z,0
2016-10-21T04:28:45.063Z,0
2016-10-21T04:29:56.015Z,0
2016-10-21T04:31:07.151Z,0
2016-10-21T04:32:18.075Z,0
2016-10-21T04:33:29.041Z,0
2016-10-21T04:36:44.229Z,0
2016-10-21T04:37:55.724Z,0
2016-10-21T04:39:06.651Z,0
2016-10-21T04:40:17.603Z,0
2016-10-21T04:41:28.569Z,0
2016-10-21T04:42:39.513Z,0
2016-10-21T04:43:50.442Z,0
2016-10-21T04:45:01.424Z,0
2016-10-21T04:46:12.355Z,0
2016-10-21T04:47:23.344Z,0
2016-10-21T04:48:34.290Z,0
2016-10-21T04:49:45.222Z,0
2016-10-21T04:50:56.176Z,0
2016-10-21T04:52:07.111Z,0
2016-10-21T04:53:18.067Z,0
2016-10-21T04:54:28.992Z,0
2016-10-21T04:55:39.934Z,0
2016-10-21T04:56:50.877Z,0
2016-10-21T04:58:01.820Z,0
2016-10-21T04:59:12.776Z,0
2016-10-21T05:00:24.261Z,0
2016-10-21T05:01:35.198Z,0
2016-10-21T05:02:46.159Z,0
2016-10-21T05:03:57.097Z,0
2016-10-21T05:05:08.077Z,0
2016-10-21T05:06:19.001Z,0
2016-10-21T05:07:29.958Z,0
2016-10-21T05:08:40.877Z,0
2016-10-21T05:09:51.813Z,0
2016-10-21T05:11:02.769Z,0
2016-10-21T05:12:13.716Z,0
2016-10-21T05:13:24.670Z,0
2016-10-21T05:14:35.685Z,0
2016-10-21T05:15:46.642Z,0
2016-10-21T05:16:57.589Z,0
2016-10-21T05:18:08.560Z,0
2016-10-21T05:19:19.497Z,0
2016-10-21T05:20:30.433Z,0
2016-10-21T05:21:41.390Z,0
2016-10-21T05:22:52.340Z,0
2016-10-21T05:24:03.276Z,0
2016-10-21T05:25:14.224Z,0
2016-10-21T05:26:25.152Z,0
2016-10-21T05:27:36.095Z,0
2016-10-21T05:28:47.034Z,0
2016-10-21T05:29:57.974Z,0
2016-10-21T05:31:08.910Z,0
2016-10-21T05:32:19.864Z,0
2016-10-21T05:33:30.851Z,0
2016-10-21T05:34:41.792Z,0
2016-10-21T05:35:52.727Z,0
2016-10-21T05:37:03.679Z,0
2016-10-21T05:38:14.615Z,0
2016-10-21T05:39:25.555Z,0
2016-10-21T05:40:36.489Z,0
2016-10-21T05:41:47.433Z,0
2016-10-21T05:42:58.344Z,0
2016-10-21T05:44:09.298Z,0
2016-10-21T05:45:20.262Z,0
2016-10-21T05:46:31.208Z,0
2016-10-21T05:47:42.141Z,0
2016-10-21T05:48:53.076Z,0
2016-10-21T05:50:03.992Z,0
2016-10-21T05:51:14.937Z,0
2016-10-21T05:52:25.885Z,0
2016-10-21T05:53:36.824Z,0
2016-10-21T05:54:48.871Z,0
2016-10-21T05:55:59.814Z,0
2016-10-21T05:57:10.869Z,0
2016-10-21T05:58:21.802Z,0
2016-10-21T05:59:32.760Z,0
2016-10-21T06:00:43.707Z,0
2016-10-21T06:01:54.647Z,0
2016-10-21T06:03:05.569Z,0
2016-10-21T06:04:16.515Z,0
2016-10-21T06:05:27.453Z,0
2016-10-21T06:06:38.569Z,0
2016-10-21T06:07:49.519Z,0
2016-10-21T06:09:00.480Z,0
2016-10-21T06:10:11.413Z,0
2016-10-21T06:11:22.370Z,0
2016-10-21T06:12:33.303Z,0
2016-10-21T06:13:44.243Z,0
2016-10-21T06:14:55.230Z,0
2016-10-21T06:16:06.702Z,0
2016-10-21T06:17:17.685Z,0
2016-10-21T06:18:28.613Z,0
2016-10-21T06:19:39.550Z,0
2016-10-21T06:20:50.467Z,0
2016-10-21T06:22:01.417Z,0
2016-10-21T06:23:12.357Z,0
2016-10-21T06:24:23.846Z,0
2016-10-21T06:25:34.823Z,0
2016-10-21T06:26:45.749Z,0
2016-10-21T06:27:56.707Z,0
2016-10-21T06:29:07.629Z,0
2016-10-21T06:30:18.620Z,0
2016-10-21T06:31:29.558Z,0
2016-10-21T06:32:40.499Z,0
2016-10-21T06:33:51.420Z,0
2016-10-21T06:35:02.366Z,0
2016-10-21T06:36:13.296Z,0
2016-10-21T06:37:24.346Z,0
2016-10-21T06:38:35.356Z,0
2016-10-21T06:39:46.310Z,0
2016-10-21T06:40:57.223Z,0
2016-10-21T06:42:08.165Z,0
2016-10-21T06:43:19.112Z,0
2016-10-21T06:44:30.032Z,0
2016-10-21T06:45:40.972Z,0
2016-10-21T06:46:51.931Z,0
2016-10-21T06:48:02.844Z,0
2016-10-21T06:49:13.782Z,0
2016-10-21T06:50:24.733Z,0
2016-10-21T06:51:35.694Z,0
2016-10-21T06:52:46.633Z,0
2016-10-21T06:53:57.836Z,0
2016-10-21T06:55:09.020Z,0
2016-10-21T06:56:19.941Z,0
2016-10-21T06:57:30.881Z,0
2016-10-21T06:58:41.816Z,0
2016-10-21T06:59:52.797Z,0
2016-10-21T07:01:03.738Z,0
2016-10-21T07:02:14.671Z,0
2016-10-21T07:03:25.614Z,0
2016-10-21T07:04:36.595Z,0
2016-10-21T07:05:47.546Z,0
2016-10-21T07:06:58.525Z,0
2016-10-21T07:08:09.449Z,0
2016-10-21T07:09:20.335Z,0
2016-10-21T07:10:31.231Z,0
2016-10-21T07:11:42.402Z,0
2016-10-21T07:12:53.602Z,0
2016-10-21T07:14:04.747Z,0
2016-10-21T07:15:15.908Z,0
2016-10-21T07:16:27.092Z,0
2016-10-21T07:17:38.238Z,0
2016-10-21T07:18:49.497Z,0
2016-10-21T07:20:00.632Z,0
2016-10-21T07:21:11.778Z,0
2016-10-21T07:22:22.929Z,0
2016-10-21T07:23:34.059Z,0
2016-10-21T07:24:45.272Z,0
2016-10-21T07:25:56.448Z,0
2016-10-21T07:27:07.623Z,0
2016-10-21T07:28:18.840Z,0
2016-10-21T07:29:30.003Z,0
2016-10-21T07:30:41.202Z,0
2016-10-21T07:31:52.354Z,0
2016-10-21T07:33:03.560Z,0
2016-10-21T07:34:14.699Z,0
2016-10-21T07:35:25.857Z,0
2016-10-21T07:36:37.104Z,0
2016-10-21T07:37:48.294Z,0
2016-10-21T07:38:59.443Z,0
2016-10-21T07:40:10.586Z,0
2016-10-21T07:41:21.748Z,0
2016-10-21T07:42:33.489Z,0
2016-10-21T07:43:44.670Z,0
2016-10-21T07:44:55.830Z,0
2016-10-21T07:46:07.048Z,0
2016-10-21T07:47:18.221Z,0
2016-10-21T07:48:29.388Z,0
2016-10-21T07:49:40.568Z,0
2016-10-21T07:50:51.804Z,0
2016-10-21T07:52:03.528Z,0
2016-10-21T07:53:14.674Z,0
2016-10-21T07:54:25.818Z,0
2016-10-21T07:55:36.998Z,0
2016-10-21T07:56:48.146Z,0
2016-10-21T07:57:59.302Z,0
2016-10-21T07:59:10.456Z,0
2016-10-21T08:00:21.621Z,0
2016-10-21T08:01:32.759Z,0
2016-10-21T08:02:43.919Z,0
2016-10-21T08:03:55.068Z,0
2016-10-21T08:05:06.783Z,0
2016-10-21T08:06:17.909Z,0
2016-10-21T08:07:29.083Z,0
2016-10-21T08:08:40.250Z,0
2016-10-21T08:09:51.445Z,0
2016-10-21T08:11:02.628Z,0
2016-10-21T08:12:13.816Z,0
2016-10-21T08:13:25.005Z,0
2016-10-21T08:14:36.753Z,0
2016-10-21T08:15:47.939Z,0
2016-10-21T08:16:59.089Z,0
2016-10-21T08:18:10.255Z,0
2016-10-21T08:19:21.431Z,0
2016-10-21T08:20:32.603Z,0
2016-10-21T08:21:43.753Z,0
2016-10-21T08:22:54.924Z,0
2016-10-21T08:24:06.106Z,5
2016-10-21T08:25:17.266Z,5
2016-10-21T08:26:28.455Z,5
2016-10-21T08:27:39.652Z,5
2016-10-21T08:28:50.837Z,5
2016-10-21T08:30:01.991Z,5
2016-10-21T08:31:13.175Z,10
2016-10-21T08:32:24.338Z,20
2016-10-21T08:33:35.499Z,25
2016-10-21T08:34:46.666Z,30
2016-10-21T08:35:57.823Z,35
2016-10-21T08:37:08.969Z,45
2016-10-21T08:38:20.120Z,50
2016-10-21T08:39:31.287Z,55
2016-10-21T08:40:42.456Z,65
2016-10-21T08:41:53.603Z,70
2016-10-21T08:43:05.352Z,75
2016-10-21T08:44:16.528Z,75
2016-10-21T08:45:27.671Z,80
2016-10-21T08:46:38.837Z,95
2016-10-21T08:47:49.993Z,110
2016-10-21T08:49:01.149Z,120
2016-10-21T08:50:12.350Z,130
2016-10-21T08:51:23.499Z,140
2016-10-21T08:52:34.648Z,145
2016-10-21T08:53:45.830Z,155
2016-10-21T08:54:57.017Z,155
2016-10-21T08:56:08.223Z,130
2016-10-21T08:57:19.354Z,115
2016-10-21T08:58:30.508Z,130
2016-10-21T08:59:41.652Z,130
2016-10-21T09:00:52.795Z,130
2016-10-21T09:02:04.020Z,130
2016-10-21T09:03:15.796Z,115
2016-10-21T09:04:26.928Z,105
2016-10-21T09:05:38.070Z,100
2016-10-21T09:06:49.266Z,100
2016-10-21T09:08:00.440Z,105
2016-10-21T09:09:11.608Z,115
2016-10-21T09:10:22.756Z,120
2016-10-21T09:11:33.905Z,110
2016-10-21T09:12:45.080Z,100
2016-10-21T09:13:56.229Z,125
2016-10-21T09:15:07.393Z,135
2016-10-21T09:16:18.539Z,130
2016-10-21T09:17:29.685Z,115
2016-10-21T09:18:40.839Z,105
2016-10-21T09:19:52.564Z,125
2016-10-21T09:21:03.706Z,125
2016-10-21T09:22:14.847Z,110
2016-10-21T09:23:26.012Z,95
2016-10-21T09:24:37.206Z,80
2016-10-21T09:25:48.401Z,80
2016-10-21T09:26:59.537Z,100
2016-10-21T09:28:11.253Z,120
2016-10-21T09:29:22.414Z,140
2016-10-21T09:30:33.562Z,150
2016-10-21T09:31:44.733Z,125
2016-10-21T09:32:55.895Z,100
2016-10-21T09:34:07.034Z,125
2016-10-21T09:35:18.180Z,105
2016-10-21T09:36:29.376Z,90
2016-10-21T09:37:40.523Z,105
2016-10-21T09:38:51.668Z,110
2016-10-21T09:40:02.825Z,135
2016-10-21T09:41:13.970Z,140
2016-10-21T09:42:25.106Z,125
2016-10-21T09:43:36.285Z,105
2016-10-21T09:44:47.461Z,130
2016-10-21T09:45:58.595Z,160
2016-10-21T09:47:09.748Z,165
2016-10-21T09:48:20.897Z,155
2016-10-21T09:49:32.033Z,200
2016-10-21T09:50:43.188Z,195
2016-10-21T09:51:54.360Z,190
2016-10-21T09:53:05.503Z,205
2016-10-21T09:54:16.666Z,195
2016-10-21T09:55:27.817Z,205
2016-10-21T09:56:38.987Z,260
2016-10-21T09:57:50.157Z,380
2016-10-21T09:59:01.288Z,410
2016-10-21T10:00:12.457Z,365
2016-10-21T10:01:23.651Z,380
2016-10-21T10:02:34.809Z,395
2016-10-21T10:03:45.967Z,430
2016-10-21T10:04:57.724Z,530
2016-10-21T10:06:08.911Z,575
2016-10-21T10:07:20.063Z,640
2016-10-21T10:08:31.222Z,705
2016-10-21T10:09:42.371Z,815
2016-10-21T10:10:53.543Z,740
2016-10-21T10:12:04.709Z,625
2016-10-21T10:13:16.479Z,640
2016-10-21T10:14:27.665Z,700
2016-10-21T10:15:38.833Z,765
2016-10-21T10:16:50.578Z,780
2016-10-21T10:18:01.729Z,880
2016-10-21T10:19:12.884Z,895
2016-10-21T10:20:24.041Z,770
2016-10-21T10:21:35.180Z,665
2016-10-21T10:22:46.328Z,680
2016-10-21T10:23:57.495Z,690
2016-10-21T10:25:08.665Z,700
2016-10-21T10:26:19.837Z,730
2016-10-21T10:27:30.991Z,715
2016-10-21T10:28:42.184Z,705
2016-10-21T10:29:53.360Z,630
2016-10-21T10:31:04.525Z,600
2016-10-21T10:32:15.695Z,715
2016-10-21T10:33:27.411Z,885
2016-10-21T10:34:38.571Z,925
2016-10-21T10:35:49.737Z,985
2016-10-21T10:37:00.961Z,1050
2016-10-21T10:38:12.728Z,1095
2016-10-21T10:39:23.909Z,1135
2016-10-21T10:40:35.882Z,1285
2016-10-21T10:41:47.157Z,1250
2016-10-21T10:42:58.316Z,1285
2016-10-21T10:44:09.517Z,1300
2016-10-21T10:45:20.722Z,1245
2016-10-21T10:46:31.882Z,1235
2016-10-21T10:47:43.038Z,1245
2016-10-21T10:48:54.295Z,1065
2016-10-21T10:50:05.549Z,905
2016-10-21T10:51:16.708Z,1010
2016-10-21T10:52:27.865Z,1030
2016-10-21T10:53:39.075Z,1155
2016-10-21T10:54:50.230Z,1135
2016-10-21T10:56:01.380Z,1090
2016-10-21T10:57:13.100Z,975
2016-10-21T10:58:24.286Z,795
2016-10-21T10:59:35.445Z,725
2016-10-21T11:00:46.609Z,790
2016-10-21T11:01:57.765Z,700
2016-10-21T11:03:08.952Z,635
2016-10-21T11:04:20.112Z,620
2016-10-21T11:05:31.256Z,670
2016-10-21T11:06:42.446Z,845
2016-10-21T11:07:53.651Z,780
2016-10-21T11:09:04.810Z,605
2016-10-21T11:10:16.388Z,500
2016-10-21T11:11:27.540Z,525
2016-10-21T11:12:38.719Z,485
2016-10-21T11:13:49.926Z,545
2016-10-21T11:15:01.437Z,680
2016-10-21T11:16:12.700Z,785
2016-10-21T11:17:23.855Z,710
2016-10-21T11:18:35.025Z,735
2016-10-21T11:19:46.237Z,895
2016-10-21T11:20:57.433Z,825
2016-10-21T11:22:08.607Z,765
2016-10-21T11:23:19.767Z,795
2016-10-21T11:24:30.937Z,815
2016-10-21T11:25:42.092Z,830
2016-10-21T11:26:53.284Z,710
2016-10-21T11:28:04.479Z,555
2016-10-21T11:29:15.660Z,565
2016-10-21T11:30:26.838Z,525
2016-10-21T11:31:38.012Z,450
2016-10-21T11:32:49.172Z,365
2016-10-21T11:34:00.647Z,420
2016-10-21T11:35:12.380Z,550
2016-10-21T11:36:23.569Z,515
2016-10-21T11:37:35.215Z,395
2016-10-21T11:38:46.382Z,420
2016-10-21T11:39:57.551Z,560
2016-10-21T11:41:08.862Z,645
2016-10-21T11:42:20.987Z,755
2016-10-21T11:43:32.374Z,780
2016-10-21T11:44:43.569Z,925
2016-10-21T11:45:54.745Z,1040
2016-10-21T11:47:06.637Z,975
2016-10-21T11:48:17.787Z,960
2016-10-21T11:49:30.087Z,1045
2016-10-21T11:50:41.468Z,1305
2016-10-21T11:51:52.630Z,1650
2016-10-21T11:53:03.764Z,2160
2016-10-21T11:54:14.978Z,3610
2016-10-21T11:55:27.372Z,2335
2016-10-21T11:56:38.870Z,2035
2016-10-21T11:57:50.036Z,2145
2016-10-21T11:59:01.201Z,2440
2016-10-21T12:00:12.358Z,1570
2016-10-21T12:01:23.501Z,1065
2016-10-21T12:02:34.688Z,980
2016-10-21T12:03:45.878Z,930
2016-10-21T12:04:57.059Z,900
2016-10-21T12:06:08.211Z,920
2016-10-21T12:07:19.368Z,930
2016-10-21T12:08:30.533Z,995
2016-10-21T12:09:41.690Z,1190
2016-10-21T12:10:52.859Z,1185
2016-10-21T12:12:04.023Z,1155
2016-10-21T12:13:15.192Z,1210
2016-10-21T12:14:26.374Z,1130
2016-10-21T12:15:38.152Z,1140
2016-10-21T12:16:49.338Z,1325
2016-10-21T12:18:00.487Z,1495
2016-10-21T12:19:11.640Z,1555
2016-10-21T12:20:22.795Z,1890
2016-10-21T12:21:33.978Z,2305
2016-10-21T12:22:45.144Z,3630
2016-10-21T12:23:56.306Z,2925
2016-10-21T12:25:07.454Z,2380
2016-10-21T12:26:19.092Z,2025
2016-10-21T12:27:30.303Z,2560
2016-10-21T12:28:41.468Z,2100
2016-10-21T12:29:52.684Z,2060
2016-10-21T12:31:03.885Z,2165
2016-10-21T12:32:15.069Z,1785
2016-10-21T12:33:26.266Z,1755
2016-10-21T12:35:35.312Z,2060
2016-10-21T12:36:46.501Z,2870
2016-10-21T12:37:57.671Z,4790
2016-10-21T12:39:08.833Z,3275
2016-10-21T12:40:20.015Z,5105
2016-10-21T12:41:32.395Z,4790
2016-10-21T12:42:43.629Z,2065
2016-10-21T12:44:39.140Z,1630
2016-10-21T12:45:50.371Z,1600
2016-10-21T12:47:01.559Z,1820
2016-10-21T12:48:13.084Z,2000
2016-10-21T12:49:24.066Z,1920
2016-10-21T12:50:35.000Z,1675
2016-10-21T12:51:45.917Z,1345
2016-10-21T12:52:56.834Z,1270
2016-10-21T12:54:08.015Z,1465
2016-10-21T12:55:19.170Z,1730
2016-10-21T12:56:30.376Z,2170
2016-10-21T12:57:41.549Z,2125
2016-10-21T12:58:52.761Z,1830
2016-10-21T13:00:03.952Z,1455
2016-10-21T13:01:15.116Z,1220
2016-10-21T13:02:26.315Z,1165
2016-10-21T13:03:37.483Z,1120
2016-10-21T13:04:48.636Z,1045
2016-10-21T13:05:59.802Z,1110
2016-10-21T13:07:11.014Z,1400
2016-10-21T13:08:22.207Z,1590
2016-10-21T13:09:33.380Z,1745
2016-10-21T13:10:44.609Z,1840
2016-10-21T13:11:55.778Z,1620
2016-10-21T13:13:07.187Z,1635
2016-10-21T13:14:18.348Z,1535
2016-10-21T13:15:29.532Z,1360
2016-10-21T13:16:40.684Z,1350
2016-10-21T13:17:51.851Z,1590
2016-10-21T13:19:03.060Z,2010
2016-10-21T13:20:14.221Z,2355
2016-10-21T13:21:25.403Z,2710
2016-10-21T13:22:36.549Z,3350
2016-10-21T13:23:47.714Z,3085
2016-10-21T13:24:58.867Z,2775
2016-10-21T13:26:10.049Z,2590
2016-10-21T13:27:21.226Z,2160
2016-10-21T13:28:32.394Z,1705
2016-10-21T13:29:43.553Z,1640
2016-10-21T13:30:54.707Z,1925
2016-10-21T13:32:05.883Z,1885
2016-10-21T13:33:17.596Z,1810
2016-10-21T13:34:28.750Z,1750
2016-10-21T13:35:40.022Z,1785
2016-10-21T13:36:51.245Z,1535
2016-10-21T13:38:02.424Z,1395
2016-10-21T13:39:13.668Z,1500
2016-10-21T13:41:28.014Z,1675
2016-10-21T13:42:39.223Z,1635
2016-10-21T13:43:50.429Z,1605
2016-10-21T13:45:01.361Z,1360
2016-10-21T13:46:12.310Z,1270
2016-10-21T13:47:23.220Z,1160
2016-10-21T13:48:37.209Z,1030
2016-10-21T13:49:48.109Z,1045
2016-10-21T13:50:59.290Z,1120
2016-10-21T13:52:10.470Z,1080
2016-10-21T13:53:21.630Z,1115
2016-10-21T13:54:32.819Z,1075
2016-10-21T13:55:43.995Z,900
2016-10-21T13:56:55.162Z,765
2016-10-21T13:58:06.458Z,760
2016-10-21T13:59:17.643Z,840
2016-10-21T14:00:28.808Z,920
2016-10-21T14:01:40.036Z,1045
2016-10-21T14:02:51.238Z,1095
2016-10-21T14:04:02.410Z,1120
2016-10-21T14:05:13.719Z,1160
2016-10-21T14:06:24.882Z,1130
2016-10-21T14:07:36.061Z,1085
2016-10-21T14:08:47.225Z,1235
2016-10-21T14:09:58.398Z,1465
2016-10-21T14:11:09.557Z,1655
2016-10-21T14:12:20.747Z,1765
2016-10-21T14:13:31.935Z,1905
2016-10-21T14:14:43.147Z,2005
2016-10-21T14:15:54.289Z,2245
2016-10-21T14:17:05.470Z,2720
2016-10-21T14:18:16.625Z,3215
2016-10-21T14:19:27.784Z,3225
2016-10-21T14:20:38.947Z,2855
2016-10-21T14:21:50.129Z,2780
2016-10-21T14:23:01.298Z,3040
2016-10-21T14:24:12.511Z,2920
2016-10-21T14:25:23.678Z,2405
2016-10-21T14:26:34.825Z,2180
2016-10-21T14:27:46.592Z,1975
2016-10-21T14:28:57.748Z,1815
2016-10-21T14:30:08.909Z,1865
2016-10-21T14:31:20.124Z,1680
2016-10-21T14:32:31.297Z,1520
2016-10-21T14:33:42.509Z,1400
2016-10-21T14:34:53.672Z,1310
2016-10-21T14:36:04.849Z,1285
2016-10-21T14:37:16.031Z,1130
2016-10-21T14:38:27.216Z,1015
2016-10-21T14:39:38.363Z,985
2016-10-21T14:40:50.095Z,965
2016-10-21T14:42:01.284Z,1105
2016-10-21T14:43:13.002Z,1170
2016-10-21T14:44:24.178Z,1150
2016-10-21T14:45:35.358Z,1095
2016-10-21T14:46:46.512Z,995
2016-10-21T14:47:57.660Z,950
2016-10-21T14:49:08.903Z,1040
2016-10-21T14:50:20.141Z,1045
2016-10-21T14:51:31.310Z,1005
2016-10-21T14:52:42.492Z,935
2016-10-21T14:53:53.692Z,880
2016-10-21T14:55:04.871Z,860
2016-10-21T14:56:16.042Z,885
2016-10-21T14:57:27.716Z,820
2016-10-21T14:58:38.980Z,705
2016-10-21T14:59:50.127Z,730
2016-10-21T15:01:01.304Z,960
2016-10-21T15:02:12.498Z,1050
2016-10-21T15:03:24.250Z,1070
2016-10-21T15:04:35.439Z,1040
2016-10-21T15:05:46.593Z,995
2016-10-21T15:06:57.742Z,1015
2016-10-21T15:08:08.902Z,1075
2016-10-21T15:09:20.075Z,1090
2016-10-21T15:10:31.822Z,1245
2016-10-21T15:11:42.999Z,1580
2016-10-21T15:12:54.219Z,1770
2016-10-21T15:14:05.407Z,1625
2016-10-21T15:15:17.149Z,1570
2016-10-21T15:16:28.307Z,1400
2016-10-21T15:17:39.541Z,1345
2016-10-21T15:18:50.690Z,1395
2016-10-21T15:20:01.845Z,1210
2016-10-21T15:21:13.023Z,1250
2016-10-21T15:22:24.200Z,1380
2016-10-21T15:23:35.370Z,1835
2016-10-21T15:24:46.557Z,2090
2016-10-21T15:25:57.797Z,1870
2016-10-21T15:27:09.002Z,1655
2016-10-21T15:28:20.170Z,1580
2016-10-21T15:29:31.359Z,1570
2016-10-21T15:30:42.540Z,1780
2016-10-21T15:31:53.693Z,1715
2016-10-21T15:33:04.863Z,1505
2016-10-21T15:34:16.044Z,1685
2016-10-21T15:35:27.209Z,1980
2016-10-21T15:36:38.349Z,1895
2016-10-21T15:37:49.523Z,1710
2016-10-21T15:39:00.759Z,1555
2016-10-21T15:40:11.920Z,1635
2016-10-21T15:41:23.149Z,1980
2016-10-21T15:42:34.308Z,2220
2016-10-21T15:43:45.507Z,2475
2016-10-21T15:44:56.728Z,1765
2016-10-21T15:46:07.901Z,1620
2016-10-21T15:47:19.087Z,1865
2016-10-21T15:48:30.278Z,1795
2016-10-21T15:49:41.440Z,1825
2016-10-21T15:50:52.602Z,1950
2016-10-21T15:52:03.823Z,2195
2016-10-21T15:53:15.020Z,2360
2016-10-21T15:54:26.175Z,2755
2016-10-21T15:55:37.329Z,2470
2016-10-21T15:56:48.520Z,2130
2016-10-21T15:57:59.688Z,1940
2016-10-21T15:59:10.945Z,1860
2016-10-21T16:00:22.125Z,1630
2016-10-21T16:01:33.317Z,1625
2016-10-21T16:02:44.499Z,1725
2016-10-21T16:03:55.691Z,2015
2016-10-21T16:05:06.868Z,2020
2016-10-21T16:06:18.604Z,1995
2016-10-21T16:07:30.092Z,2140
2016-10-21T16:08:41.278Z,2305
2016-10-21T16:09:52.460Z,2130
2016-10-21T16:11:03.689Z,2280
2016-10-21T16:12:15.060Z,2325
2016-10-21T16:13:26.243Z,2115
2016-10-21T16:14:37.396Z,1930
2016-10-21T16:15:48.584Z,1790
2016-10-21T16:17:00.312Z,1500
2016-10-21T16:18:11.466Z,1220
2016-10-21T16:19:22.631Z,1055
2016-10-21T16:20:33.798Z,950
2016-10-21T16:21:44.960Z,1015
2016-10-21T16:22:56.143Z,1135
2016-10-21T16:24:07.488Z,1215
2016-10-21T16:25:19.323Z,1230
2016-10-21T16:26:30.545Z,1255
2016-10-21T16:27:41.723Z,1305
2016-10-21T16:28:52.901Z,1380
2016-10-21T16:30:04.049Z,1505
2016-10-21T16:31:15.205Z,1620
2016-10-21T16:32:26.403Z,1695
2016-10-21T16:33:38.113Z,1570
2016-10-21T16:34:49.289Z,1280
2016-10-21T16:36:00.447Z,1110
2016-10-21T16:37:12.181Z,1070
2016-10-21T16:38:23.354Z,1155
2016-10-21T16:39:34.514Z,1305
2016-10-21T16:40:45.693Z,1305
2016-10-21T16:41:56.871Z,1230
2016-10-21T16:43:08.041Z,1230
2016-10-21T16:44:19.197Z,1335
2016-10-21T16:45:30.568Z,1420
2016-10-21T16:46:41.967Z,1495
2016-10-21T16:47:53.147Z,1550
2016-10-21T16:49:04.388Z,1655